sensor_id;sensor_type;location;lat;lon;timestamp;temperature;humidity
23562;DHT22;11959;49.418;8.728;2023-10-19T00:01:14;12.30;99.90
23562;DHT22;11959;49.418;8.728;2023-10-19T00:03:41;12.40;99.90
23562;DHT22;11959;49.418;8.728;2023-10-19T00:06:09;12.30;99.90
23562;DHT22;11959;49.418;8.728;2023-10-19T00:08:37;12.30;99.90
23562;DHT22;11959;49.418;8.728;2023-10-19T00:11:12;12.40;99.90
23562;DHT22;11959;49.418;8.728;2023-10-19T00:13:47;12.40;99.90
23562;DHT22;11959;49.418;8.728;2023-10-19T00:16:16;12.40;99.90
23562;DHT22;11959;49.418;8.728;2023-10-19T00:18:46;12.40;99.90
23562;DHT22;11959;49.418;8.728;2023-10-19T00:21:13;12.40;99.90
23562;DHT22;11959;49.418;8.728;2023-10-19T00:23:54;12.40;99.90
23562;DHT22;11959;49.418;8.728;2023-10-19T00:26:26;12.50;99.90
23562;DHT22;11959;49.418;8.728;2023-10-19T00:28:54;12.40;99.90
23562;DHT22;11959;49.418;8.728;2023-10-19T00:31:24;12.40;99.90
23562;DHT22;11959;49.418;8.728;2023-10-19T00:33:52;12.40;99.90
23562;DHT22;11959;49.418;8.728;2023-10-19T00:36:20;12.40;99.90
23562;DHT22;11959;49.418;8.728;2023-10-19T00:38:46;12.40;99.90
23562;DHT22;11959;49.418;8.728;2023-10-19T00:41:23;12.30;99.90
23562;DHT22;11959;49.418;8.728;2023-10-19T00:43:55;12.40;99.90
23562;DHT22;11959;49.418;8.728;2023-10-19T00:46:37;12.40;99.90
23562;DHT22;11959;49.418;8.728;2023-10-19T00:49:03;12.40;99.90
23562;DHT22;11959;49.418;8.728;2023-10-19T00:51:37;12.50;99.90
23562;DHT22;11959;49.418;8.728;2023-10-19T00:54:34;12.40;99.90
23562;DHT22;11959;49.418;8.728;2023-10-19T00:57:06;12.50;99.90
23562;DHT22;11959;49.418;8.728;2023-10-19T00:59:34;12.50;99.90
23562;DHT22;11959;49.418;8.728;2023-10-19T01:02:22;12.50;99.90
23562;DHT22;11959;49.418;8.728;2023-10-19T01:04:52;12.50;99.90
23562;DHT22;11959;49.418;8.728;2023-10-19T01:07:25;12.40;99.90
23562;DHT22;11959;49.418;8.728;2023-10-19T01:10:03;12.50;99.90
23562;DHT22;11959;49.418;8.728;2023-10-19T01:12:45;12.50;99.90
23562;DHT22;11959;49.418;8.728;2023-10-19T01:15:15;12.40;99.90
23562;DHT22;11959;49.418;8.728;2023-10-19T01:17:54;12.40;99.90
23562;DHT22;11959;49.418;8.728;2023-10-19T01:20:31;12.40;99.90
23562;DHT22;11959;49.418;8.728;2023-10-19T01:23:01;12.40;99.90
23562;DHT22;11959;49.418;8.728;2023-10-19T01:25:46;12.50;99.90
23562;DHT22;11959;49.418;8.728;2023-10-19T01:28:26;12.40;99.90
23562;DHT22;11959;49.418;8.728;2023-10-19T01:31:08;12.40;99.90
23562;DHT22;11959;49.418;8.728;2023-10-19T01:33:34;12.40;99.90
23562;DHT22;11959;49.418;8.728;2023-10-19T01:36:00;12.50;99.90
23562;DHT22;11959;49.418;8.728;2023-10-19T01:38:45;12.40;99.90
23562;DHT22;11959;49.418;8.728;2023-10-19T01:41:13;12.50;99.90
23562;DHT22;11959;49.418;8.728;2023-10-19T01:43:46;12.40;99.90
23562;DHT22;11959;49.418;8.728;2023-10-19T01:46:15;12.40;99.90
23562;DHT22;11959;49.418;8.728;2023-10-19T01:49:00;12.50;99.90
23562;DHT22;11959;49.418;8.728;2023-10-19T01:51:28;12.50;99.90
23562;DHT22;11959;49.418;8.728;2023-10-19T01:53:55;12.50;99.90
23562;DHT22;11959;49.418;8.728;2023-10-19T01:56:21;12.40;99.90
23562;DHT22;11959;49.418;8.728;2023-10-19T01:58:48;12.50;99.90
23562;DHT22;11959;49.418;8.728;2023-10-19T02:01:16;12.50;99.90
23562;DHT22;11959;49.418;8.728;2023-10-19T02:03:52;12.50;99.90
23562;DHT22;11959;49.418;8.728;2023-10-19T02:06:23;12.50;99.90
23562;DHT22;11959;49.418;8.728;2023-10-19T02:09:12;12.50;99.90
23562;DHT22;11959;49.418;8.728;2023-10-19T02:11:53;12.50;99.90
23562;DHT22;11959;49.418;8.728;2023-10-19T02:14:21;12.50;99.90
23562;DHT22;11959;49.418;8.728;2023-10-19T02:16:49;12.50;99.90
23562;DHT22;11959;49.418;8.728;2023-10-19T02:19:21;12.50;99.90
23562;DHT22;11959;49.418;8.728;2023-10-19T02:21:57;12.50;99.90
23562;DHT22;11959;49.418;8.728;2023-10-19T02:24:23;12.50;99.90
23562;DHT22;11959;49.418;8.728;2023-10-19T02:26:55;12.50;99.90
23562;DHT22;11959;49.418;8.728;2023-10-19T02:29:22;12.60;99.90
23562;DHT22;11959;49.418;8.728;2023-10-19T02:31:48;12.50;99.90
23562;DHT22;11959;49.418;8.728;2023-10-19T02:34:15;12.60;99.90
23562;DHT22;11959;49.418;8.728;2023-10-19T02:36:42;12.50;99.90
23562;DHT22;11959;49.418;8.728;2023-10-19T02:39:10;12.50;99.90
23562;DHT22;11959;49.418;8.728;2023-10-19T02:41:36;12.60;99.90
23562;DHT22;11959;49.418;8.728;2023-10-19T02:44:03;12.50;99.90
23562;DHT22;11959;49.418;8.728;2023-10-19T02:46:38;12.60;99.90
23562;DHT22;11959;49.418;8.728;2023-10-19T02:49:05;12.60;99.90
23562;DHT22;11959;49.418;8.728;2023-10-19T02:51:39;12.60;99.90
23562;DHT22;11959;49.418;8.728;2023-10-19T02:54:08;12.50;99.90
23562;DHT22;11959;49.418;8.728;2023-10-19T02:56:43;12.50;99.90
23562;DHT22;11959;49.418;8.728;2023-10-19T02:59:13;12.60;99.90
23562;DHT22;11959;49.418;8.728;2023-10-19T03:01:41;12.60;99.90
23562;DHT22;11959;49.418;8.728;2023-10-19T03:04:10;12.60;99.90
23562;DHT22;11959;49.418;8.728;2023-10-19T03:06:38;12.60;99.90
23562;DHT22;11959;49.418;8.728;2023-10-19T03:09:07;12.60;99.90
23562;DHT22;11959;49.418;8.728;2023-10-19T03:11:43;12.60;99.90
23562;DHT22;11959;49.418;8.728;2023-10-19T03:14:10;12.60;99.90
23562;DHT22;11959;49.418;8.728;2023-10-19T03:16:37;12.60;99.90
23562;DHT22;11959;49.418;8.728;2023-10-19T03:19:05;12.60;99.90
23562;DHT22;11959;49.418;8.728;2023-10-19T03:21:33;12.60;99.90
23562;DHT22;11959;49.418;8.728;2023-10-19T03:24:07;12.70;99.90
23562;DHT22;11959;49.418;8.728;2023-10-19T03:26:37;12.70;99.90
23562;DHT22;11959;49.418;8.728;2023-10-19T03:29:05;12.70;99.90
23562;DHT22;11959;49.418;8.728;2023-10-19T03:31:37;12.70;99.90
23562;DHT22;11959;49.418;8.728;2023-10-19T03:34:10;12.70;99.90
23562;DHT22;11959;49.418;8.728;2023-10-19T03:36:38;12.60;99.90
23562;DHT22;11959;49.418;8.728;2023-10-19T03:39:04;12.70;99.90
23562;DHT22;11959;49.418;8.728;2023-10-19T03:41:37;12.70;99.90
23562;DHT22;11959;49.418;8.728;2023-10-19T03:44:04;12.70;99.90
23562;DHT22;11959;49.418;8.728;2023-10-19T03:46:30;12.70;99.90
23562;DHT22;11959;49.418;8.728;2023-10-19T03:48:57;12.70;99.90
23562;DHT22;11959;49.418;8.728;2023-10-19T03:51:38;12.70;99.90
23562;DHT22;11959;49.418;8.728;2023-10-19T03:54:25;12.70;99.90
23562;DHT22;11959;49.418;8.728;2023-10-19T03:56:51;12.70;99.90
23562;DHT22;11959;49.418;8.728;2023-10-19T03:59:21;12.70;99.90
23562;DHT22;11959;49.418;8.728;2023-10-19T04:01:47;12.70;99.90
23562;DHT22;11959;49.418;8.728;2023-10-19T04:04:13;12.70;99.90
23562;DHT22;11959;49.418;8.728;2023-10-19T04:06:42;12.70;99.90
23562;DHT22;11959;49.418;8.728;2023-10-19T04:09:14;12.80;99.90
23562;DHT22;11959;49.418;8.728;2023-10-19T04:11:43;12.80;99.90
23562;DHT22;11959;49.418;8.728;2023-10-19T04:14:15;12.80;99.90
23562;DHT22;11959;49.418;8.728;2023-10-19T04:16:42;12.80;99.90
23562;DHT22;11959;49.418;8.728;2023-10-19T04:19:12;12.80;99.90
23562;DHT22;11959;49.418;8.728;2023-10-19T04:21:39;12.80;99.90
23562;DHT22;11959;49.418;8.728;2023-10-19T04:24:06;12.80;99.90
23562;DHT22;11959;49.418;8.728;2023-10-19T04:26:33;12.80;99.90
23562;DHT22;11959;49.418;8.728;2023-10-19T04:29:03;12.80;99.90
23562;DHT22;11959;49.418;8.728;2023-10-19T04:31:43;12.80;99.90
23562;DHT22;11959;49.418;8.728;2023-10-19T04:34:20;12.80;99.90
23562;DHT22;11959;49.418;8.728;2023-10-19T04:36:50;12.80;99.90
23562;DHT22;11959;49.418;8.728;2023-10-19T04:39:18;12.90;99.90
23562;DHT22;11959;49.418;8.728;2023-10-19T04:41:46;12.90;99.90
23562;DHT22;11959;49.418;8.728;2023-10-19T04:44:14;12.90;99.90
23562;DHT22;11959;49.418;8.728;2023-10-19T04:46:41;12.90;99.90
23562;DHT22;11959;49.418;8.728;2023-10-19T04:49:06;12.90;99.90
23562;DHT22;11959;49.418;8.728;2023-10-19T04:51:33;12.90;99.90
23562;DHT22;11959;49.418;8.728;2023-10-19T04:54:00;12.90;99.90
23562;DHT22;11959;49.418;8.728;2023-10-19T04:56:25;12.90;99.90
23562;DHT22;11959;49.418;8.728;2023-10-19T04:58:51;12.90;99.90
23562;DHT22;11959;49.418;8.728;2023-10-19T05:01:18;12.90;99.90
23562;DHT22;11959;49.418;8.728;2023-10-19T05:03:43;12.90;99.90
23562;DHT22;11959;49.418;8.728;2023-10-19T05:06:09;12.90;99.90
23562;DHT22;11959;49.418;8.728;2023-10-19T05:08:35;12.90;99.90
23562;DHT22;11959;49.418;8.728;2023-10-19T05:11:02;12.90;99.90
23562;DHT22;11959;49.418;8.728;2023-10-19T05:13:29;12.90;99.90
23562;DHT22;11959;49.418;8.728;2023-10-19T05:15:56;12.90;99.90
23562;DHT22;11959;49.418;8.728;2023-10-19T05:18:31;12.90;99.90
23562;DHT22;11959;49.418;8.728;2023-10-19T05:21:05;12.90;99.90
23562;DHT22;11959;49.418;8.728;2023-10-19T05:23:33;12.90;99.90
23562;DHT22;11959;49.418;8.728;2023-10-19T05:26:02;13.00;99.90
23562;DHT22;11959;49.418;8.728;2023-10-19T05:28:28;13.00;99.90
23562;DHT22;11959;49.418;8.728;2023-10-19T05:30:54;13.00;99.90
23562;DHT22;11959;49.418;8.728;2023-10-19T05:33:20;12.90;99.90
23562;DHT22;11959;49.418;8.728;2023-10-19T05:35:49;12.90;99.90
23562;DHT22;11959;49.418;8.728;2023-10-19T05:38:18;12.90;99.90
23562;DHT22;11959;49.418;8.728;2023-10-19T05:40:48;12.90;99.90
23562;DHT22;11959;49.418;8.728;2023-10-19T05:43:15;13.00;99.90
23562;DHT22;11959;49.418;8.728;2023-10-19T05:45:41;12.90;99.90
23562;DHT22;11959;49.418;8.728;2023-10-19T05:48:07;12.90;99.90
23562;DHT22;11959;49.418;8.728;2023-10-19T05:50:34;12.90;99.90
23562;DHT22;11959;49.418;8.728;2023-10-19T05:53:00;12.90;99.90
23562;DHT22;11959;49.418;8.728;2023-10-19T05:55:26;12.90;99.90
23562;DHT22;11959;49.418;8.728;2023-10-19T05:57:51;12.90;99.90
23562;DHT22;11959;49.418;8.728;2023-10-19T06:00:17;12.90;99.90
23562;DHT22;11959;49.418;8.728;2023-10-19T06:02:47;12.80;99.90
23562;DHT22;11959;49.418;8.728;2023-10-19T06:05:14;12.80;99.90
23562;DHT22;11959;49.418;8.728;2023-10-19T06:07:47;12.80;99.90
23562;DHT22;11959;49.418;8.728;2023-10-19T06:10:15;12.80;99.90
23562;DHT22;11959;49.418;8.728;2023-10-19T06:12:42;12.80;99.90
23562;DHT22;11959;49.418;8.728;2023-10-19T06:15:09;12.80;99.90
23562;DHT22;11959;49.418;8.728;2023-10-19T06:17:39;12.80;99.90
23562;DHT22;11959;49.418;8.728;2023-10-19T06:20:07;12.80;99.90
23562;DHT22;11959;49.418;8.728;2023-10-19T06:22:35;12.80;99.90
23562;DHT22;11959;49.418;8.728;2023-10-19T06:25:01;12.90;99.90
23562;DHT22;11959;49.418;8.728;2023-10-19T06:27:28;12.90;99.90
23562;DHT22;11959;49.418;8.728;2023-10-19T06:29:55;12.90;99.90
23562;DHT22;11959;49.418;8.728;2023-10-19T06:32:20;12.90;99.90
23562;DHT22;11959;49.418;8.728;2023-10-19T06:34:46;12.90;99.90
23562;DHT22;11959;49.418;8.728;2023-10-19T06:37:12;12.90;99.90
23562;DHT22;11959;49.418;8.728;2023-10-19T06:39:38;12.90;99.90
23562;DHT22;11959;49.418;8.728;2023-10-19T06:42:07;13.00;99.90
23562;DHT22;11959;49.418;8.728;2023-10-19T06:44:40;13.00;99.90
23562;DHT22;11959;49.418;8.728;2023-10-19T06:47:07;13.00;99.90
23562;DHT22;11959;49.418;8.728;2023-10-19T06:49:33;13.00;99.90
23562;DHT22;11959;49.418;8.728;2023-10-19T06:51:59;13.00;99.90
23562;DHT22;11959;49.418;8.728;2023-10-19T06:54:25;13.10;99.90
23562;DHT22;11959;49.418;8.728;2023-10-19T06:56:53;13.10;99.90
23562;DHT22;11959;49.418;8.728;2023-10-19T06:59:18;13.10;99.90
23562;DHT22;11959;49.418;8.728;2023-10-19T07:01:44;13.10;99.90
23562;DHT22;11959;49.418;8.728;2023-10-19T07:04:12;13.10;99.90
23562;DHT22;11959;49.418;8.728;2023-10-19T07:06:38;13.20;99.90
23562;DHT22;11959;49.418;8.728;2023-10-19T07:09:04;13.20;99.90
23562;DHT22;11959;49.418;8.728;2023-10-19T07:11:32;13.20;99.90
23562;DHT22;11959;49.418;8.728;2023-10-19T07:13:59;13.20;99.90
23562;DHT22;11959;49.418;8.728;2023-10-19T07:16:25;13.30;99.90
23562;DHT22;11959;49.418;8.728;2023-10-19T07:18:52;13.30;99.90
23562;DHT22;11959;49.418;8.728;2023-10-19T07:21:18;13.40;99.90
23562;DHT22;11959;49.418;8.728;2023-10-19T07:23:44;13.40;99.90
23562;DHT22;11959;49.418;8.728;2023-10-19T07:26:11;13.50;99.90
23562;DHT22;11959;49.418;8.728;2023-10-19T07:28:39;13.50;99.90
23562;DHT22;11959;49.418;8.728;2023-10-19T07:31:05;13.60;99.90
23562;DHT22;11959;49.418;8.728;2023-10-19T07:33:39;13.60;99.90
23562;DHT22;11959;49.418;8.728;2023-10-19T07:36:14;13.70;99.90
23562;DHT22;11959;49.418;8.728;2023-10-19T07:38:40;13.80;99.90
23562;DHT22;11959;49.418;8.728;2023-10-19T07:41:08;13.80;99.90
23562;DHT22;11959;49.418;8.728;2023-10-19T07:43:35;13.90;99.90
23562;DHT22;11959;49.418;8.728;2023-10-19T07:46:01;13.90;99.90
23562;DHT22;11959;49.418;8.728;2023-10-19T07:48:26;13.90;99.90
23562;DHT22;11959;49.418;8.728;2023-10-19T07:50:52;13.90;99.90
23562;DHT22;11959;49.418;8.728;2023-10-19T07:53:19;13.90;99.90
23562;DHT22;11959;49.418;8.728;2023-10-19T07:55:45;14.00;99.90
23562;DHT22;11959;49.418;8.728;2023-10-19T07:58:11;14.00;99.90
23562;DHT22;11959;49.418;8.728;2023-10-19T08:00:37;14.10;99.90
23562;DHT22;11959;49.418;8.728;2023-10-19T08:03:05;14.10;99.90
23562;DHT22;11959;49.418;8.728;2023-10-19T08:05:31;14.10;99.90
23562;DHT22;11959;49.418;8.728;2023-10-19T08:07:59;14.10;99.90
23562;DHT22;11959;49.418;8.728;2023-10-19T08:10:26;14.20;99.90
23562;DHT22;11959;49.418;8.728;2023-10-19T08:12:52;14.30;99.90
23562;DHT22;11959;49.418;8.728;2023-10-19T08:15:19;14.20;99.90
23562;DHT22;11959;49.418;8.728;2023-10-19T08:17:48;14.20;99.90
23562;DHT22;11959;49.418;8.728;2023-10-19T08:20:15;14.20;99.90
23562;DHT22;11959;49.418;8.728;2023-10-19T08:22:54;14.20;99.90
23562;DHT22;11959;49.418;8.728;2023-10-19T08:25:22;14.20;99.90
23562;DHT22;11959;49.418;8.728;2023-10-19T08:27:49;14.30;99.90
23562;DHT22;11959;49.418;8.728;2023-10-19T08:30:22;14.30;99.90
23562;DHT22;11959;49.418;8.728;2023-10-19T08:32:49;14.30;99.90
23562;DHT22;11959;49.418;8.728;2023-10-19T08:35:16;14.30;99.90
23562;DHT22;11959;49.418;8.728;2023-10-19T08:37:46;14.30;99.90
23562;DHT22;11959;49.418;8.728;2023-10-19T08:40:12;14.30;99.90
23562;DHT22;11959;49.418;8.728;2023-10-19T08:42:49;14.40;99.90
23562;DHT22;11959;49.418;8.728;2023-10-19T08:45:16;14.40;99.90
23562;DHT22;11959;49.418;8.728;2023-10-19T08:47:59;14.40;99.90
23562;DHT22;11959;49.418;8.728;2023-10-19T08:50:27;14.40;99.90
23562;DHT22;11959;49.418;8.728;2023-10-19T08:52:56;14.40;99.90
23562;DHT22;11959;49.418;8.728;2023-10-19T08:55:21;14.50;99.90
23562;DHT22;11959;49.418;8.728;2023-10-19T08:57:49;14.40;99.90
23562;DHT22;11959;49.418;8.728;2023-10-19T09:00:16;14.40;99.90
23562;DHT22;11959;49.418;8.728;2023-10-19T09:02:47;14.40;99.90
23562;DHT22;11959;49.418;8.728;2023-10-19T09:05:13;14.40;99.90
23562;DHT22;11959;49.418;8.728;2023-10-19T09:07:52;14.40;99.90
23562;DHT22;11959;49.418;8.728;2023-10-19T09:10:24;14.40;99.90
23562;DHT22;11959;49.418;8.728;2023-10-19T09:13:02;14.40;99.90
23562;DHT22;11959;49.418;8.728;2023-10-19T09:15:29;14.40;99.90
23562;DHT22;11959;49.418;8.728;2023-10-19T09:18:08;14.40;99.90
23562;DHT22;11959;49.418;8.728;2023-10-19T09:20:37;14.50;99.90
23562;DHT22;11959;49.418;8.728;2023-10-19T09:23:03;14.50;99.90
23562;DHT22;11959;49.418;8.728;2023-10-19T09:25:29;14.50;99.90
23562;DHT22;11959;49.418;8.728;2023-10-19T09:27:54;14.50;99.90
23562;DHT22;11959;49.418;8.728;2023-10-19T09:30:22;14.60;99.90
23562;DHT22;11959;49.418;8.728;2023-10-19T09:32:48;14.60;99.90
23562;DHT22;11959;49.418;8.728;2023-10-19T09:35:15;14.60;99.90
23562;DHT22;11959;49.418;8.728;2023-10-19T09:37:44;14.70;99.90
23562;DHT22;11959;49.418;8.728;2023-10-19T09:40:10;14.70;99.90
23562;DHT22;11959;49.418;8.728;2023-10-19T09:42:43;14.70;99.90
23562;DHT22;11959;49.418;8.728;2023-10-19T09:45:16;14.70;99.90
23562;DHT22;11959;49.418;8.728;2023-10-19T09:47:49;14.70;99.90
23562;DHT22;11959;49.418;8.728;2023-10-19T09:50:15;14.80;99.90
23562;DHT22;11959;49.418;8.728;2023-10-19T09:52:41;14.90;99.90
23562;DHT22;11959;49.418;8.728;2023-10-19T09:55:33;14.90;99.90
23562;DHT22;11959;49.418;8.728;2023-10-19T09:58:04;15.00;99.90
23562;DHT22;11959;49.418;8.728;2023-10-19T10:00:33;15.00;99.90
23562;DHT22;11959;49.418;8.728;2023-10-19T10:03:00;15.10;99.90
23562;DHT22;11959;49.418;8.728;2023-10-19T10:10:47;15.20;99.90
23562;DHT22;11959;49.418;8.728;2023-10-19T10:15:56;15.30;99.90
23562;DHT22;11959;49.418;8.728;2023-10-19T10:18:34;15.40;99.90
23562;DHT22;11959;49.418;8.728;2023-10-19T10:21:21;15.40;99.90
23562;DHT22;11959;49.418;8.728;2023-10-19T10:23:49;15.50;99.90
23562;DHT22;11959;49.418;8.728;2023-10-19T10:26:17;15.50;99.90
23562;DHT22;11959;49.418;8.728;2023-10-19T10:31:41;15.70;99.90
23562;DHT22;11959;49.418;8.728;2023-10-19T10:34:09;15.80;99.90
23562;DHT22;11959;49.418;8.728;2023-10-19T10:36:57;15.90;99.90
23562;DHT22;11959;49.418;8.728;2023-10-19T10:39:23;16.00;99.90
23562;DHT22;11959;49.418;8.728;2023-10-19T10:41:56;16.10;99.90
23562;DHT22;11959;49.418;8.728;2023-10-19T10:44:35;16.20;99.90
23562;DHT22;11959;49.418;8.728;2023-10-19T10:47:03;16.30;99.90
23562;DHT22;11959;49.418;8.728;2023-10-19T10:49:29;16.40;99.90
23562;DHT22;11959;49.418;8.728;2023-10-19T10:51:54;16.50;99.90
23562;DHT22;11959;49.418;8.728;2023-10-19T10:54:22;16.60;99.90
23562;DHT22;11959;49.418;8.728;2023-10-19T10:56:49;16.60;99.90
23562;DHT22;11959;49.418;8.728;2023-10-19T10:59:15;16.70;99.90
23562;DHT22;11959;49.418;8.728;2023-10-19T11:01:40;16.70;99.90
23562;DHT22;11959;49.418;8.728;2023-10-19T11:04:11;16.70;99.90
23562;DHT22;11959;49.418;8.728;2023-10-19T11:06:51;16.70;99.90
23562;DHT22;11959;49.418;8.728;2023-10-19T11:09:17;16.70;99.90
23562;DHT22;11959;49.418;8.728;2023-10-19T11:11:47;16.70;99.90
23562;DHT22;11959;49.418;8.728;2023-10-19T11:14:15;16.70;99.90
23562;DHT22;11959;49.418;8.728;2023-10-19T11:16:41;16.60;99.90
23562;DHT22;11959;49.418;8.728;2023-10-19T11:19:08;16.60;99.90
23562;DHT22;11959;49.418;8.728;2023-10-19T11:21:35;16.60;99.90
23562;DHT22;11959;49.418;8.728;2023-10-19T11:24:01;16.60;99.90
23562;DHT22;11959;49.418;8.728;2023-10-19T11:26:27;16.60;99.90
23562;DHT22;11959;49.418;8.728;2023-10-19T11:29:02;16.60;99.90
23562;DHT22;11959;49.418;8.728;2023-10-19T11:31:29;16.60;99.90
23562;DHT22;11959;49.418;8.728;2023-10-19T11:34:04;16.60;99.90
23562;DHT22;11959;49.418;8.728;2023-10-19T11:36:29;16.60;99.90
23562;DHT22;11959;49.418;8.728;2023-10-19T11:38:55;16.60;99.90
23562;DHT22;11959;49.418;8.728;2023-10-19T11:41:21;16.60;99.90
23562;DHT22;11959;49.418;8.728;2023-10-19T11:43:48;16.60;99.90
23562;DHT22;11959;49.418;8.728;2023-10-19T11:46:15;16.60;99.90
23562;DHT22;11959;49.418;8.728;2023-10-19T11:48:41;16.60;99.90
23562;DHT22;11959;49.418;8.728;2023-10-19T11:51:09;16.60;99.90
23562;DHT22;11959;49.418;8.728;2023-10-19T11:53:38;16.60;99.90
23562;DHT22;11959;49.418;8.728;2023-10-19T11:56:06;16.60;99.90
23562;DHT22;11959;49.418;8.728;2023-10-19T11:58:36;16.60;99.90
23562;DHT22;11959;49.418;8.728;2023-10-19T12:01:03;16.50;99.90
23562;DHT22;11959;49.418;8.728;2023-10-19T12:03:34;16.60;99.90
23562;DHT22;11959;49.418;8.728;2023-10-19T12:06:03;16.50;99.90
23562;DHT22;11959;49.418;8.728;2023-10-19T12:08:32;16.50;99.90
23562;DHT22;11959;49.418;8.728;2023-10-19T12:10:58;16.50;99.90
23562;DHT22;11959;49.418;8.728;2023-10-19T12:13:24;16.50;99.90
23562;DHT22;11959;49.418;8.728;2023-10-19T12:15:49;16.60;99.90
23562;DHT22;11959;49.418;8.728;2023-10-19T12:18:20;16.60;99.90
23562;DHT22;11959;49.418;8.728;2023-10-19T12:20:47;16.60;99.90
23562;DHT22;11959;49.418;8.728;2023-10-19T12:23:14;16.50;99.90
23562;DHT22;11959;49.418;8.728;2023-10-19T12:25:39;16.50;99.90
23562;DHT22;11959;49.418;8.728;2023-10-19T12:28:07;16.50;99.90
23562;DHT22;11959;49.418;8.728;2023-10-19T12:30:33;16.50;99.90
23562;DHT22;11959;49.418;8.728;2023-10-19T12:33:05;16.40;99.90
23562;DHT22;11959;49.418;8.728;2023-10-19T12:35:38;16.40;99.90
23562;DHT22;11959;49.418;8.728;2023-10-19T12:38:30;16.40;99.90
23562;DHT22;11959;49.418;8.728;2023-10-19T12:40:55;16.50;99.90
23562;DHT22;11959;49.418;8.728;2023-10-19T12:43:21;16.50;99.90
23562;DHT22;11959;49.418;8.728;2023-10-19T12:45:50;16.50;99.90
23562;DHT22;11959;49.418;8.728;2023-10-19T12:48:19;16.50;99.90
23562;DHT22;11959;49.418;8.728;2023-10-19T12:50:55;16.50;99.90
23562;DHT22;11959;49.418;8.728;2023-10-19T12:53:21;16.50;99.90
23562;DHT22;11959;49.418;8.728;2023-10-19T12:55:50;16.50;99.90
23562;DHT22;11959;49.418;8.728;2023-10-19T12:58:16;16.50;99.90
23562;DHT22;11959;49.418;8.728;2023-10-19T13:00:45;16.50;99.90
23562;DHT22;11959;49.418;8.728;2023-10-19T13:03:13;16.50;99.90
23562;DHT22;11959;49.418;8.728;2023-10-19T13:05:40;16.50;99.90
23562;DHT22;11959;49.418;8.728;2023-10-19T13:08:07;16.50;99.90
23562;DHT22;11959;49.418;8.728;2023-10-19T13:10:34;16.50;99.90
23562;DHT22;11959;49.418;8.728;2023-10-19T13:13:04;16.60;99.90
23562;DHT22;11959;49.418;8.728;2023-10-19T13:15:32;16.60;99.90
23562;DHT22;11959;49.418;8.728;2023-10-19T13:18:03;16.60;99.90
23562;DHT22;11959;49.418;8.728;2023-10-19T13:20:29;16.70;99.90
23562;DHT22;11959;49.418;8.728;2023-10-19T13:23:06;16.70;99.90
23562;DHT22;11959;49.418;8.728;2023-10-19T13:25:32;16.70;99.90
23562;DHT22;11959;49.418;8.728;2023-10-19T13:28:09;16.70;99.90
23562;DHT22;11959;49.418;8.728;2023-10-19T13:30:42;16.70;99.90
23562;DHT22;11959;49.418;8.728;2023-10-19T13:33:09;16.70;99.90
23562;DHT22;11959;49.418;8.728;2023-10-19T13:35:39;16.70;99.90
23562;DHT22;11959;49.418;8.728;2023-10-19T13:38:07;16.70;99.90
23562;DHT22;11959;49.418;8.728;2023-10-19T13:40:39;16.70;99.90
23562;DHT22;11959;49.418;8.728;2023-10-19T13:43:06;16.70;99.90
23562;DHT22;11959;49.418;8.728;2023-10-19T13:45:35;16.60;99.90
23562;DHT22;11959;49.418;8.728;2023-10-19T13:48:05;16.60;99.90
23562;DHT22;11959;49.418;8.728;2023-10-19T13:50:32;16.60;99.90
23562;DHT22;11959;49.418;8.728;2023-10-19T13:53:00;16.60;99.90
23562;DHT22;11959;49.418;8.728;2023-10-19T13:55:27;16.50;99.90
23562;DHT22;11959;49.418;8.728;2023-10-19T13:57:54;16.50;99.90
23562;DHT22;11959;49.418;8.728;2023-10-19T14:00:22;16.50;99.90
23562;DHT22;11959;49.418;8.728;2023-10-19T14:03:01;16.50;99.90
23562;DHT22;11959;49.418;8.728;2023-10-19T14:05:35;16.50;99.90
23562;DHT22;11959;49.418;8.728;2023-10-19T14:08:02;16.50;99.90
23562;DHT22;11959;49.418;8.728;2023-10-19T14:10:29;16.50;99.90
23562;DHT22;11959;49.418;8.728;2023-10-19T14:12:56;16.40;99.90
23562;DHT22;11959;49.418;8.728;2023-10-19T14:15:22;16.40;99.90
23562;DHT22;11959;49.418;8.728;2023-10-19T14:17:48;16.40;99.90
23562;DHT22;11959;49.418;8.728;2023-10-19T14:20:15;16.40;99.90
23562;DHT22;11959;49.418;8.728;2023-10-19T14:22:43;16.40;99.90
23562;DHT22;11959;49.418;8.728;2023-10-19T14:25:10;16.40;99.90
23562;DHT22;11959;49.418;8.728;2023-10-19T14:27:40;16.50;99.90
23562;DHT22;11959;49.418;8.728;2023-10-19T14:30:08;16.50;99.90
23562;DHT22;11959;49.418;8.728;2023-10-19T14:32:37;16.50;99.90
23562;DHT22;11959;49.418;8.728;2023-10-19T14:35:02;16.50;99.90
23562;DHT22;11959;49.418;8.728;2023-10-19T14:37:31;16.50;99.90
23562;DHT22;11959;49.418;8.728;2023-10-19T14:39:57;16.50;99.90
23562;DHT22;11959;49.418;8.728;2023-10-19T14:42:24;16.50;99.90
23562;DHT22;11959;49.418;8.728;2023-10-19T14:44:50;16.50;99.90
23562;DHT22;11959;49.418;8.728;2023-10-19T14:47:15;16.40;99.90
23562;DHT22;11959;49.418;8.728;2023-10-19T14:49:41;16.40;99.90
23562;DHT22;11959;49.418;8.728;2023-10-19T14:52:07;16.40;99.90
23562;DHT22;11959;49.418;8.728;2023-10-19T14:54:32;16.40;99.90
23562;DHT22;11959;49.418;8.728;2023-10-19T14:56:58;16.40;99.90
23562;DHT22;11959;49.418;8.728;2023-10-19T14:59:24;16.40;99.90
23562;DHT22;11959;49.418;8.728;2023-10-19T15:01:49;16.40;99.90
23562;DHT22;11959;49.418;8.728;2023-10-19T15:04:15;16.40;99.90
23562;DHT22;11959;49.418;8.728;2023-10-19T15:06:41;16.40;99.90
23562;DHT22;11959;49.418;8.728;2023-10-19T15:09:07;16.40;99.90
23562;DHT22;11959;49.418;8.728;2023-10-19T15:11:39;16.40;99.90
23562;DHT22;11959;49.418;8.728;2023-10-19T15:14:05;16.40;99.90
23562;DHT22;11959;49.418;8.728;2023-10-19T15:16:31;16.40;99.90
23562;DHT22;11959;49.418;8.728;2023-10-19T15:18:56;16.40;99.90
23562;DHT22;11959;49.418;8.728;2023-10-19T15:21:22;16.50;99.90
23562;DHT22;11959;49.418;8.728;2023-10-19T15:23:48;16.60;99.90
23562;DHT22;11959;49.418;8.728;2023-10-19T15:26:18;16.70;99.90
23562;DHT22;11959;49.418;8.728;2023-10-19T15:28:45;16.70;99.90
23562;DHT22;11959;49.418;8.728;2023-10-19T15:31:10;16.70;99.90
23562;DHT22;11959;49.418;8.728;2023-10-19T15:33:36;16.70;99.90
23562;DHT22;11959;49.418;8.728;2023-10-19T15:36:02;16.70;99.90
23562;DHT22;11959;49.418;8.728;2023-10-19T15:38:27;16.70;99.90
23562;DHT22;11959;49.418;8.728;2023-10-19T15:40:53;16.70;99.90
23562;DHT22;11959;49.418;8.728;2023-10-19T15:43:20;16.60;99.90
23562;DHT22;11959;49.418;8.728;2023-10-19T15:45:46;16.60;99.90
23562;DHT22;11959;49.418;8.728;2023-10-19T15:48:14;16.70;99.90
23562;DHT22;11959;49.418;8.728;2023-10-19T15:50:41;16.60;99.90
23562;DHT22;11959;49.418;8.728;2023-10-19T15:53:07;16.60;99.90